LFMO

Orange-Caritat (BA 115) Air Base Airport

Orange/Caritat, France
TAF LFMO 210800Z 2109/2209 VRB02KT CAVOK BECMG 2114/2116 36015KT BECMG 2118/2120 36015G25KT BECMG 2122/2124 35020G35KT TEMPO 2206/2209 35025G40KT
Issued Valid From Valid To
Jun-21 @ 08:00 UTC
(2 hours ago)
Jun-21 @ 09:00 UTC
(an hour ago)
Jun-22 @ 09:00 UTC
(in 23 hours)
Jun-21 @ 09:00 to Jun-21 @ 14:00
TAF LFMO 210800Z 2109/2209 VRB02KT CAVOK
Wind Visibility Clouds Conditions
Variable at 2 knots 10,000+ meters
  • No significant clouds
Becoming Jun-21 @ 14:00 to Jun-21 @ 18:00
BECMG 2114/2116 36015KT
Wind Visibility Clouds Conditions
360° at 15 knots 10,000+ meters
  • No significant clouds
Becoming Jun-21 @ 18:00 to Jun-21 @ 22:00
BECMG 2118/2120 36015G25KT
Wind Visibility Clouds Conditions
360° at 15 knots
 Gusting to 25 knots
10,000+ meters
  • No significant clouds
Becoming Jun-21 @ 22:00 to Jun-22 @ 09:00
BECMG 2122/2124 35020G35KT
Wind Visibility Clouds Conditions
350° at 20 knots
 Gusting to 35 knots
10,000+ meters
  • No significant clouds
Temporary Jun-22 @ 06:00 to Jun-22 @ 09:00
TEMPO 2206/2209 35025G40KT
Wind
350° at 25 knots
 Gusting to 40 knots
TAF LFMO 210800Z 2109/2209 VRB02KT CAVOK BECMG 2114/2116 36015KT BECMG 2118/2120 36015G25KT BECMG 2122/2124 35020G35KT TEMPO 2206/2209 35025G40KT
Issued Jun-21 @ 08:00 UTC
(2 hours ago)
Valid From Jun-21 @ 09:00 UTC
(an hour ago)
Valid To Jun-22 @ 09:00 UTC
(in 23 hours)
Jun-21 @ 09:00 - Jun-21 @ 14:00
Wind Visibility
Variable at 2 knots 10,000+ meters
Clouds
  • No significant clouds
Conditions
Becoming Jun-21 @ 14:00 - Jun-21 @ 18:00
Wind Visibility
360° at 15 knots 10,000+ meters
Clouds
  • No significant clouds
Conditions
Becoming Jun-21 @ 18:00 - Jun-21 @ 22:00
Wind Visibility
360° at 15 knots
 Gusting to 25 knots
10,000+ meters
Clouds
  • No significant clouds
Conditions
Becoming Jun-21 @ 22:00 - Jun-22 @ 09:00
Wind Visibility
350° at 20 knots
 Gusting to 35 knots
10,000+ meters
Clouds
  • No significant clouds
Conditions
Temporary Jun-22 @ 06:00 - Jun-22 @ 09:00
Wind
350° at 25 knots
 Gusting to 40 knots